CheckWX is a tool to help pilots better visualize weather data.  It is not intended as a substitute for an official pre-flight weather briefing.

12:50:59 UTC

KJDD METAR
Wood County Airport
Mineola/Quitman, Texas, USA
Current

16 mins ago

KJDD 171235Z AUTO 00000KT 10SM OVC003 19/19 A2991 RMK AO2
Observed
Jun-17 @ 12:35 UTC
Visibility
10 SM
Flight Rules
LIFR
Cloud Levels
  • Overcast at 300' AGL
Temperature
19°C / 66°F
Dewpoint
19°C / 66°F
Humidity
100%
Altimeter
29.91" Hg
Pressure
1012.92 hPa
Previous

36 mins ago

KJDD 171215Z AUTO 07003KT 7SM OVC003 19/18 A2992 RMK AO2
Observed
Jun-17 @ 12:15 UTC
Wind
  • 070° at 3 KTS
Visibility
7 SM
Flight Rules
LIFR
Cloud Levels
  • Overcast at 300' AGL
Temperature
19°C / 66°F
Dewpoint
18°C / 64°F
Humidity
94%
Altimeter
29.92" Hg
Pressure
1013.22 hPa
Previous

56 mins ago

KJDD 171155Z AUTO 00000KT 10SM SCT003 OVC020 19/18 A2991 RMK AO2
Observed
Jun-17 @ 11:55 UTC
Visibility
10 SM
Flight Rules
MVFR
Cloud Levels
  • Scattered at 300' AGL
  • Overcast at 2,000' AGL
Temperature
19°C / 66°F
Dewpoint
18°C / 64°F
Humidity
94%
Altimeter
29.91" Hg
Pressure
1012.92 hPa